sensor_id;sensor_type;location;lat;lon;timestamp;P1;durP1;ratioP1;P2;durP2;ratioP2
51943;SDS011;37969;53.132;6.370;2023-09-30T00:02:03;444.33;;;163.43;;
51943;SDS011;37969;53.132;6.370;2023-09-30T00:04:30;414.48;;;207.60;;
51943;SDS011;37969;53.132;6.370;2023-09-30T00:06:56;407.70;;;173.82;;
51943;SDS011;37969;53.132;6.370;2023-09-30T00:09:23;479.63;;;161.10;;
51943;SDS011;37969;53.132;6.370;2023-09-30T00:11:49;484.90;;;176.00;;
51943;SDS011;37969;53.132;6.370;2023-09-30T00:14:15;448.75;;;182.18;;
51943;SDS011;37969;53.132;6.370;2023-09-30T00:16:42;498.85;;;188.98;;
51943;SDS011;37969;53.132;6.370;2023-09-30T00:19:09;465.92;;;181.82;;
51943;SDS011;37969;53.132;6.370;2023-09-30T00:21:35;221.60;;;104.65;;
51943;SDS011;37969;53.132;6.370;2023-09-30T00:24:01;462.50;;;163.05;;
51943;SDS011;37969;53.132;6.370;2023-09-30T00:26:28;492.88;;;183.20;;
51943;SDS011;37969;53.132;6.370;2023-09-30T00:28:54;467.17;;;160.88;;
51943;SDS011;37969;53.132;6.370;2023-09-30T00:31:20;467.85;;;164.95;;
51943;SDS011;37969;53.132;6.370;2023-09-30T00:33:47;458.63;;;157.68;;
51943;SDS011;37969;53.132;6.370;2023-09-30T00:36:13;463.90;;;161.60;;
51943;SDS011;37969;53.132;6.370;2023-09-30T00:38:39;479.70;;;174.23;;
51943;SDS011;37969;53.132;6.370;2023-09-30T00:41:06;479.38;;;173.07;;
51943;SDS011;37969;53.132;6.370;2023-09-30T00:43:32;472.75;;;165.88;;
51943;SDS011;37969;53.132;6.370;2023-09-30T00:48:34;448.45;;;151.13;;
51943;SDS011;37969;53.132;6.370;2023-09-30T00:51:00;467.88;;;165.35;;
51943;SDS011;37969;53.132;6.370;2023-09-30T00:53:27;466.15;;;163.15;;
51943;SDS011;37969;53.132;6.370;2023-09-30T00:55:53;473.80;;;164.23;;
51943;SDS011;37969;53.132;6.370;2023-09-30T00:58:22;468.08;;;162.25;;
51943;SDS011;37969;53.132;6.370;2023-09-30T01:00:51;447.85;;;170.10;;
51943;SDS011;37969;53.132;6.370;2023-09-30T01:03:18;472.67;;;164.35;;
51943;SDS011;37969;53.132;6.370;2023-09-30T01:05:45;471.67;;;164.57;;
51943;SDS011;37969;53.132;6.370;2023-09-30T01:08:11;448.10;;;187.73;;
51943;SDS011;37969;53.132;6.370;2023-09-30T01:10:37;488.23;;;181.25;;
51943;SDS011;37969;53.132;6.370;2023-09-30T01:13:03;305.83;;;147.00;;
51943;SDS011;37969;53.132;6.370;2023-09-30T01:15:30;299.73;;;152.55;;
51943;SDS011;37969;53.132;6.370;2023-09-30T01:17:56;343.08;;;171.68;;
51943;SDS011;37969;53.132;6.370;2023-09-30T01:20:23;473.10;;;166.73;;
51943;SDS011;37969;53.132;6.370;2023-09-30T01:22:49;483.00;;;177.93;;
51943;SDS011;37969;53.132;6.370;2023-09-30T01:25:15;458.50;;;164.85;;
51943;SDS011;37969;53.132;6.370;2023-09-30T01:27:42;465.27;;;163.63;;
51943;SDS011;37969;53.132;6.370;2023-09-30T01:30:08;490.85;;;181.00;;
51943;SDS011;37969;53.132;6.370;2023-09-30T01:32:36;451.33;;;145.40;;
51943;SDS011;37969;53.132;6.370;2023-09-30T01:35:02;467.77;;;165.52;;
51943;SDS011;37969;53.132;6.370;2023-09-30T01:37:29;471.45;;;166.85;;
51943;SDS011;37969;53.132;6.370;2023-09-30T01:39:55;451.35;;;155.10;;
51943;SDS011;37969;53.132;6.370;2023-09-30T01:42:21;473.55;;;169.35;;
51943;SDS011;37969;53.132;6.370;2023-09-30T01:44:47;461.15;;;159.43;;
51943;SDS011;37969;53.132;6.370;2023-09-30T01:47:14;457.05;;;155.73;;
51943;SDS011;37969;53.132;6.370;2023-09-30T01:49:40;481.42;;;178.25;;
51943;SDS011;37969;53.132;6.370;2023-09-30T01:52:06;464.70;;;157.02;;
51943;SDS011;37969;53.132;6.370;2023-09-30T01:54:32;472.30;;;165.48;;
51943;SDS011;37969;53.132;6.370;2023-09-30T01:56:59;463.60;;;155.45;;
51943;SDS011;37969;53.132;6.370;2023-09-30T01:59:25;470.77;;;167.10;;
51943;SDS011;37969;53.132;6.370;2023-09-30T02:01:53;469.42;;;165.70;;
51943;SDS011;37969;53.132;6.370;2023-09-30T02:04:19;486.83;;;177.90;;
51943;SDS011;37969;53.132;6.370;2023-09-30T02:06:45;449.83;;;148.90;;
51943;SDS011;37969;53.132;6.370;2023-09-30T02:09:11;452.40;;;153.98;;
51943;SDS011;37969;53.132;6.370;2023-09-30T02:11:37;473.70;;;170.55;;
51943;SDS011;37969;53.132;6.370;2023-09-30T02:14:06;445.83;;;147.43;;
51943;SDS011;37969;53.132;6.370;2023-09-30T02:16:32;442.02;;;145.45;;
51943;SDS011;37969;53.132;6.370;2023-09-30T02:18:59;459.48;;;157.85;;
51943;SDS011;37969;53.132;6.370;2023-09-30T02:21:26;459.23;;;156.00;;
51943;SDS011;37969;53.132;6.370;2023-09-30T02:23:53;474.00;;;171.02;;
51943;SDS011;37969;53.132;6.370;2023-09-30T02:26:20;469.83;;;167.73;;
51943;SDS011;37969;53.132;6.370;2023-09-30T02:28:47;458.38;;;156.18;;
51943;SDS011;37969;53.132;6.370;2023-09-30T02:31:14;464.67;;;163.88;;
51943;SDS011;37969;53.132;6.370;2023-09-30T02:33:43;459.88;;;155.63;;
51943;SDS011;37969;53.132;6.370;2023-09-30T02:36:09;459.70;;;157.90;;
51943;SDS011;37969;53.132;6.370;2023-09-30T02:38:35;459.05;;;159.20;;
51943;SDS011;37969;53.132;6.370;2023-09-30T02:41:03;475.67;;;174.57;;
51943;SDS011;37969;53.132;6.370;2023-09-30T02:43:29;486.35;;;186.07;;
51943;SDS011;37969;53.132;6.370;2023-09-30T02:45:55;477.08;;;174.40;;
51943;SDS011;37969;53.132;6.370;2023-09-30T02:48:21;484.38;;;182.80;;
51943;SDS011;37969;53.132;6.370;2023-09-30T02:50:48;478.83;;;174.65;;
51943;SDS011;37969;53.132;6.370;2023-09-30T02:53:14;477.60;;;175.02;;
51943;SDS011;37969;53.132;6.370;2023-09-30T02:55:41;458.83;;;200.90;;
51943;SDS011;37969;53.132;6.370;2023-09-30T02:58:08;291.33;;;189.68;;
51943;SDS011;37969;53.132;6.370;2023-09-30T03:00:35;485.83;;;203.23;;
51943;SDS011;37969;53.132;6.370;2023-09-30T03:03:03;461.25;;;158.93;;
51943;SDS011;37969;53.132;6.370;2023-09-30T03:05:30;453.23;;;158.57;;
51943;SDS011;37969;53.132;6.370;2023-09-30T03:07:58;464.80;;;162.93;;
51943;SDS011;37969;53.132;6.370;2023-09-30T03:10:25;448.27;;;145.98;;
51943;SDS011;37969;53.132;6.370;2023-09-30T03:12:53;447.65;;;150.15;;
51943;SDS011;37969;53.132;6.370;2023-09-30T03:15:19;432.88;;;142.05;;
51943;SDS011;37969;53.132;6.370;2023-09-30T03:17:46;457.23;;;156.07;;
51943;SDS011;37969;53.132;6.370;2023-09-30T03:20:12;448.20;;;151.43;;
51943;SDS011;37969;53.132;6.370;2023-09-30T03:22:40;447.60;;;150.38;;
51943;SDS011;37969;53.132;6.370;2023-09-30T03:25:08;450.52;;;150.32;;
51943;SDS011;37969;53.132;6.370;2023-09-30T03:27:34;445.77;;;146.35;;
51943;SDS011;37969;53.132;6.370;2023-09-30T03:30:02;448.95;;;149.45;;
51943;SDS011;37969;53.132;6.370;2023-09-30T03:32:29;460.60;;;154.48;;
51943;SDS011;37969;53.132;6.370;2023-09-30T03:34:55;438.55;;;142.70;;
51943;SDS011;37969;53.132;6.370;2023-09-30T03:37:24;440.60;;;148.15;;
51943;SDS011;37969;53.132;6.370;2023-09-30T03:39:53;436.15;;;148.60;;
51943;SDS011;37969;53.132;6.370;2023-09-30T03:42:19;451.35;;;151.13;;
51943;SDS011;37969;53.132;6.370;2023-09-30T03:44:46;415.67;;;133.80;;
51943;SDS011;37969;53.132;6.370;2023-09-30T03:47:14;456.60;;;149.82;;
51943;SDS011;37969;53.132;6.370;2023-09-30T03:49:41;436.92;;;143.68;;
51943;SDS011;37969;53.132;6.370;2023-09-30T03:52:08;447.48;;;144.85;;
51943;SDS011;37969;53.132;6.370;2023-09-30T03:54:35;425.92;;;143.65;;
51943;SDS011;37969;53.132;6.370;2023-09-30T03:57:01;440.52;;;141.07;;
51943;SDS011;37969;53.132;6.370;2023-09-30T03:59:28;447.17;;;145.63;;
51943;SDS011;37969;53.132;6.370;2023-09-30T04:01:55;460.45;;;153.70;;
51943;SDS011;37969;53.132;6.370;2023-09-30T04:04:27;455.40;;;153.73;;
51943;SDS011;37969;53.132;6.370;2023-09-30T04:06:54;462.02;;;154.95;;
51943;SDS011;37969;53.132;6.370;2023-09-30T04:09:20;449.23;;;149.88;;
51943;SDS011;37969;53.132;6.370;2023-09-30T04:11:46;461.85;;;154.82;;
51943;SDS011;37969;53.132;6.370;2023-09-30T04:14:12;462.10;;;156.05;;
51943;SDS011;37969;53.132;6.370;2023-09-30T04:16:38;451.60;;;151.40;;
51943;SDS011;37969;53.132;6.370;2023-09-30T04:19:06;463.88;;;155.77;;
51943;SDS011;37969;53.132;6.370;2023-09-30T04:21:33;464.02;;;157.00;;
51943;SDS011;37969;53.132;6.370;2023-09-30T04:23:59;467.58;;;160.80;;
51943;SDS011;37969;53.132;6.370;2023-09-30T04:26:26;469.63;;;165.18;;
51943;SDS011;37969;53.132;6.370;2023-09-30T04:28:52;483.90;;;175.88;;
51943;SDS011;37969;53.132;6.370;2023-09-30T04:31:19;466.48;;;161.18;;
51943;SDS011;37969;53.132;6.370;2023-09-30T04:33:47;467.77;;;161.18;;
51943;SDS011;37969;53.132;6.370;2023-09-30T04:36:14;472.05;;;173.70;;
51943;SDS011;37969;53.132;6.370;2023-09-30T04:38:40;471.33;;;165.73;;
51943;SDS011;37969;53.132;6.370;2023-09-30T04:41:08;470.80;;;170.27;;
51943;SDS011;37969;53.132;6.370;2023-09-30T04:43:34;470.42;;;160.85;;
51943;SDS011;37969;53.132;6.370;2023-09-30T04:46:04;472.33;;;164.75;;
51943;SDS011;37969;53.132;6.370;2023-09-30T04:48:32;463.17;;;151.13;;
51943;SDS011;37969;53.132;6.370;2023-09-30T04:50:58;443.70;;;142.05;;
51943;SDS011;37969;53.132;6.370;2023-09-30T04:53:25;445.40;;;144.15;;
51943;SDS011;37969;53.132;6.370;2023-09-30T04:55:51;451.45;;;143.30;;
51943;SDS011;37969;53.132;6.370;2023-09-30T04:58:17;456.30;;;148.77;;
51943;SDS011;37969;53.132;6.370;2023-09-30T05:00:44;461.25;;;156.85;;
51943;SDS011;37969;53.132;6.370;2023-09-30T05:03:10;476.55;;;181.43;;
51943;SDS011;37969;53.132;6.370;2023-09-30T05:05:36;456.50;;;151.40;;
51943;SDS011;37969;53.132;6.370;2023-09-30T05:08:02;460.38;;;153.07;;
51943;SDS011;37969;53.132;6.370;2023-09-30T05:10:29;475.15;;;163.98;;
51943;SDS011;37969;53.132;6.370;2023-09-30T05:12:55;464.27;;;159.20;;
51943;SDS011;37969;53.132;6.370;2023-09-30T05:15:22;462.70;;;156.07;;
51943;SDS011;37969;53.132;6.370;2023-09-30T05:17:48;454.63;;;151.93;;
51943;SDS011;37969;53.132;6.370;2023-09-30T05:20:15;478.08;;;155.63;;
51943;SDS011;37969;53.132;6.370;2023-09-30T05:22:42;470.20;;;160.05;;
51943;SDS011;37969;53.132;6.370;2023-09-30T05:25:12;462.70;;;145.23;;
51943;SDS011;37969;53.132;6.370;2023-09-30T05:27:41;444.77;;;139.73;;
51943;SDS011;37969;53.132;6.370;2023-09-30T05:30:07;465.35;;;153.98;;
51943;SDS011;37969;53.132;6.370;2023-09-30T05:32:36;448.08;;;140.77;;
51943;SDS011;37969;53.132;6.370;2023-09-30T05:35:03;456.73;;;149.90;;
51943;SDS011;37969;53.132;6.370;2023-09-30T05:37:30;471.33;;;161.50;;
51943;SDS011;37969;53.132;6.370;2023-09-30T05:39:56;475.08;;;157.82;;
51943;SDS011;37969;53.132;6.370;2023-09-30T05:42:23;464.52;;;152.68;;
51943;SDS011;37969;53.132;6.370;2023-09-30T05:44:49;458.67;;;147.00;;
51943;SDS011;37969;53.132;6.370;2023-09-30T05:47:16;453.55;;;146.90;;
51943;SDS011;37969;53.132;6.370;2023-09-30T05:49:42;465.10;;;153.00;;
51943;SDS011;37969;53.132;6.370;2023-09-30T05:52:08;460.15;;;155.55;;
51943;SDS011;37969;53.132;6.370;2023-09-30T05:54:35;458.30;;;147.60;;
51943;SDS011;37969;53.132;6.370;2023-09-30T05:57:02;464.25;;;150.70;;
51943;SDS011;37969;53.132;6.370;2023-09-30T05:59:28;455.52;;;144.43;;
51943;SDS011;37969;53.132;6.370;2023-09-30T06:01:55;455.45;;;144.32;;
51943;SDS011;37969;53.132;6.370;2023-09-30T06:04:22;471.02;;;157.55;;
51943;SDS011;37969;53.132;6.370;2023-09-30T06:06:48;439.63;;;148.55;;
51943;SDS011;37969;53.132;6.370;2023-09-30T06:09:14;400.63;;;154.02;;
51943;SDS011;37969;53.132;6.370;2023-09-30T06:11:41;458.48;;;147.45;;
51943;SDS011;37969;53.132;6.370;2023-09-30T06:14:07;464.50;;;166.55;;
51943;SDS011;37969;53.132;6.370;2023-09-30T06:16:33;445.70;;;143.65;;
51943;SDS011;37969;53.132;6.370;2023-09-30T06:19:00;451.10;;;146.23;;
51943;SDS011;37969;53.132;6.370;2023-09-30T06:21:27;452.58;;;144.65;;
51943;SDS011;37969;53.132;6.370;2023-09-30T06:23:55;460.73;;;152.75;;
51943;SDS011;37969;53.132;6.370;2023-09-30T06:26:21;451.50;;;149.02;;
51943;SDS011;37969;53.132;6.370;2023-09-30T06:28:50;435.70;;;141.02;;
51943;SDS011;37969;53.132;6.370;2023-09-30T06:31:19;461.92;;;154.57;;
51943;SDS011;37969;53.132;6.370;2023-09-30T06:33:46;421.58;;;133.20;;
51943;SDS011;37969;53.132;6.370;2023-09-30T06:36:12;464.35;;;163.82;;
51943;SDS011;37969;53.132;6.370;2023-09-30T06:38:39;457.45;;;149.25;;
51943;SDS011;37969;53.132;6.370;2023-09-30T06:41:07;469.48;;;155.88;;
51943;SDS011;37969;53.132;6.370;2023-09-30T06:43:34;467.13;;;159.35;;
51943;SDS011;37969;53.132;6.370;2023-09-30T06:46:07;436.63;;;164.35;;
51943;SDS011;37969;53.132;6.370;2023-09-30T06:48:34;473.40;;;170.25;;
51943;SDS011;37969;53.132;6.370;2023-09-30T06:51:00;474.98;;;169.18;;
51943;SDS011;37969;53.132;6.370;2023-09-30T06:53:28;476.08;;;177.18;;
51943;SDS011;37969;53.132;6.370;2023-09-30T06:55:54;476.92;;;171.75;;
51943;SDS011;37969;53.132;6.370;2023-09-30T06:58:20;477.25;;;171.98;;
51943;SDS011;37969;53.132;6.370;2023-09-30T07:00:47;482.25;;;176.48;;
51943;SDS011;37969;53.132;6.370;2023-09-30T07:03:14;423.23;;;186.93;;
51943;SDS011;37969;53.132;6.370;2023-09-30T07:05:40;385.55;;;180.50;;
51943;SDS011;37969;53.132;6.370;2023-09-30T07:08:07;431.50;;;186.27;;
51943;SDS011;37969;53.132;6.370;2023-09-30T07:10:34;435.23;;;181.40;;
51943;SDS011;37969;53.132;6.370;2023-09-30T07:13:04;463.98;;;185.98;;
51943;SDS011;37969;53.132;6.370;2023-09-30T07:15:32;470.58;;;186.68;;
51943;SDS011;37969;53.132;6.370;2023-09-30T07:17:58;425.50;;;196.70;;
51943;SDS011;37969;53.132;6.370;2023-09-30T07:20:24;443.95;;;188.43;;
51943;SDS011;37969;53.132;6.370;2023-09-30T07:22:51;485.02;;;187.73;;
51943;SDS011;37969;53.132;6.370;2023-09-30T07:25:17;490.70;;;189.80;;
51943;SDS011;37969;53.132;6.370;2023-09-30T07:27:44;398.30;;;196.38;;
51943;SDS011;37969;53.132;6.370;2023-09-30T07:30:11;460.45;;;202.93;;
51943;SDS011;37969;53.132;6.370;2023-09-30T07:32:37;308.23;;;184.90;;
51943;SDS011;37969;53.132;6.370;2023-09-30T07:35:04;167.55;;;130.50;;
51943;SDS011;37969;53.132;6.370;2023-09-30T07:37:30;200.18;;;142.05;;
51943;SDS011;37969;53.132;6.370;2023-09-30T07:39:56;206.40;;;151.15;;
51943;SDS011;37969;53.132;6.370;2023-09-30T07:42:23;358.05;;;216.50;;
51943;SDS011;37969;53.132;6.370;2023-09-30T07:44:49;139.55;;;117.28;;
51943;SDS011;37969;53.132;6.370;2023-09-30T07:47:15;111.78;;;101.30;;
51943;SDS011;37969;53.132;6.370;2023-09-30T07:49:42;175.38;;;139.75;;
51943;SDS011;37969;53.132;6.370;2023-09-30T07:52:08;197.27;;;161.38;;
51943;SDS011;37969;53.132;6.370;2023-09-30T07:54:36;136.60;;;105.03;;
51943;SDS011;37969;53.132;6.370;2023-09-30T07:57:02;203.45;;;173.80;;
51943;SDS011;37969;53.132;6.370;2023-09-30T07:59:29;315.50;;;224.85;;
51943;SDS011;37969;53.132;6.370;2023-09-30T08:01:55;73.90;;;67.15;;
51943;SDS011;37969;53.132;6.370;2023-09-30T08:04:22;192.23;;;154.95;;
51943;SDS011;37969;53.132;6.370;2023-09-30T08:06:48;200.32;;;168.60;;
51943;SDS011;37969;53.132;6.370;2023-09-30T08:09:16;264.15;;;215.05;;
51943;SDS011;37969;53.132;6.370;2023-09-30T08:11:44;156.35;;;136.80;;
51943;SDS011;37969;53.132;6.370;2023-09-30T08:14:10;318.73;;;239.73;;
51943;SDS011;37969;53.132;6.370;2023-09-30T08:16:36;344.60;;;251.38;;
51943;SDS011;37969;53.132;6.370;2023-09-30T08:19:03;74.40;;;67.10;;
51943;SDS011;37969;53.132;6.370;2023-09-30T08:21:30;137.32;;;123.82;;
51943;SDS011;37969;53.132;6.370;2023-09-30T08:23:56;140.02;;;126.50;;
51943;SDS011;37969;53.132;6.370;2023-09-30T08:26:23;69.68;;;63.17;;
51943;SDS011;37969;53.132;6.370;2023-09-30T08:28:49;16.48;;;10.80;;
51943;SDS011;37969;53.132;6.370;2023-09-30T08:31:15;19.88;;;10.50;;
51943;SDS011;37969;53.132;6.370;2023-09-30T08:33:42;36.40;;;32.55;;
51943;SDS011;37969;53.132;6.370;2023-09-30T08:36:11;27.73;;;18.88;;
51943;SDS011;37969;53.132;6.370;2023-09-30T08:38:37;33.55;;;29.95;;
51943;SDS011;37969;53.132;6.370;2023-09-30T08:41:04;17.23;;;13.57;;
51943;SDS011;37969;53.132;6.370;2023-09-30T08:43:31;40.60;;;36.33;;
51943;SDS011;37969;53.132;6.370;2023-09-30T08:46:00;20.70;;;16.90;;
51943;SDS011;37969;53.132;6.370;2023-09-30T08:48:28;17.15;;;8.65;;
51943;SDS011;37969;53.132;6.370;2023-09-30T08:50:58;22.15;;;14.18;;
51943;SDS011;37969;53.132;6.370;2023-09-30T08:53:24;17.17;;;7.85;;
51943;SDS011;37969;53.132;6.370;2023-09-30T08:55:52;18.40;;;8.85;;
51943;SDS011;37969;53.132;6.370;2023-09-30T08:58:23;26.52;;;7.95;;
51943;SDS011;37969;53.132;6.370;2023-09-30T09:00:50;17.25;;;8.30;;
51943;SDS011;37969;53.132;6.370;2023-09-30T09:03:18;18.48;;;7.20;;
51943;SDS011;37969;53.132;6.370;2023-09-30T09:05:45;18.33;;;6.78;;
51943;SDS011;37969;53.132;6.370;2023-09-30T09:08:11;19.70;;;6.75;;
51943;SDS011;37969;53.132;6.370;2023-09-30T09:10:48;13.23;;;6.72;;
51943;SDS011;37969;53.132;6.370;2023-09-30T09:13:19;12.75;;;6.00;;
51943;SDS011;37969;53.132;6.370;2023-09-30T09:15:45;21.17;;;8.30;;
51943;SDS011;37969;53.132;6.370;2023-09-30T09:18:11;15.77;;;6.35;;
51943;SDS011;37969;53.132;6.370;2023-09-30T09:20:39;11.45;;;5.55;;
51943;SDS011;37969;53.132;6.370;2023-09-30T09:23:06;14.30;;;4.57;;
51943;SDS011;37969;53.132;6.370;2023-09-30T09:25:38;13.35;;;4.72;;
51943;SDS011;37969;53.132;6.370;2023-09-30T09:28:04;17.40;;;4.05;;
51943;SDS011;37969;53.132;6.370;2023-09-30T09:30:31;11.82;;;3.20;;
51943;SDS011;37969;53.132;6.370;2023-09-30T09:32:59;13.27;;;4.18;;
51943;SDS011;37969;53.132;6.370;2023-09-30T09:35:25;15.65;;;5.13;;
51943;SDS011;37969;53.132;6.370;2023-09-30T09:38:01;15.73;;;4.60;;
51943;SDS011;37969;53.132;6.370;2023-09-30T09:40:29;12.73;;;4.03;;
51943;SDS011;37969;53.132;6.370;2023-09-30T09:42:56;15.02;;;4.40;;
51943;SDS011;37969;53.132;6.370;2023-09-30T09:45:23;12.80;;;4.43;;
51943;SDS011;37969;53.132;6.370;2023-09-30T09:47:50;14.65;;;4.35;;
51943;SDS011;37969;53.132;6.370;2023-09-30T09:50:17;17.45;;;4.63;;
51943;SDS011;37969;53.132;6.370;2023-09-30T09:52:46;12.75;;;3.92;;
51943;SDS011;37969;53.132;6.370;2023-09-30T09:55:15;13.82;;;4.00;;
51943;SDS011;37969;53.132;6.370;2023-09-30T09:57:41;17.83;;;4.72;;
51943;SDS011;37969;53.132;6.370;2023-09-30T10:00:11;12.73;;;3.47;;
51943;SDS011;37969;53.132;6.370;2023-09-30T10:02:40;13.80;;;4.00;;
51943;SDS011;37969;53.132;6.370;2023-09-30T10:05:06;11.52;;;3.78;;
51943;SDS011;37969;53.132;6.370;2023-09-30T10:07:35;13.52;;;3.58;;
51943;SDS011;37969;53.132;6.370;2023-09-30T10:10:02;12.70;;;3.83;;
51943;SDS011;37969;53.132;6.370;2023-09-30T10:12:37;9.23;;;2.60;;
51943;SDS011;37969;53.132;6.370;2023-09-30T10:15:41;12.73;;;3.13;;
51943;SDS011;37969;53.132;6.370;2023-09-30T10:18:01;12.15;;;2.85;;
51943;SDS011;37969;53.132;6.370;2023-09-30T10:20:29;8.10;;;2.05;;
51943;SDS011;37969;53.132;6.370;2023-09-30T10:25:41;10.75;;;1.90;;
51943;SDS011;37969;53.132;6.370;2023-09-30T10:31:07;8.98;;;2.40;;
51943;SDS011;37969;53.132;6.370;2023-09-30T10:33:35;9.13;;;2.17;;
51943;SDS011;37969;53.132;6.370;2023-09-30T10:36:01;9.02;;;2.20;;
51943;SDS011;37969;53.132;6.370;2023-09-30T10:40:55;6.43;;;1.80;;
51943;SDS011;37969;53.132;6.370;2023-09-30T10:43:29;13.18;;;2.05;;
51943;SDS011;37969;53.132;6.370;2023-09-30T10:45:57;12.32;;;2.50;;
51943;SDS011;37969;53.132;6.370;2023-09-30T10:50:53;8.88;;;2.08;;
51943;SDS011;37969;53.132;6.370;2023-09-30T10:53:21;10.35;;;2.22;;
51943;SDS011;37969;53.132;6.370;2023-09-30T10:55:53;12.50;;;1.70;;
51943;SDS011;37969;53.132;6.370;2023-09-30T10:58:20;4.82;;;2.13;;
51943;SDS011;37969;53.132;6.370;2023-09-30T11:00:54;6.47;;;2.03;;
51943;SDS011;37969;53.132;6.370;2023-09-30T11:03:20;10.95;;;1.95;;
51943;SDS011;37969;53.132;6.370;2023-09-30T11:05:47;6.18;;;1.90;;
51943;SDS011;37969;53.132;6.370;2023-09-30T11:08:15;9.82;;;1.77;;
51943;SDS011;37969;53.132;6.370;2023-09-30T11:10:47;9.30;;;2.08;;
51943;SDS011;37969;53.132;6.370;2023-09-30T11:13:13;6.20;;;1.83;;
51943;SDS011;37969;53.132;6.370;2023-09-30T11:15:40;6.25;;;2.17;;
51943;SDS011;37969;53.132;6.370;2023-09-30T11:18:13;7.50;;;2.03;;
51943;SDS011;37969;53.132;6.370;2023-09-30T11:20:40;12.07;;;2.20;;
51943;SDS011;37969;53.132;6.370;2023-09-30T11:23:06;4.25;;;1.60;;
51943;SDS011;37969;53.132;6.370;2023-09-30T11:25:35;8.90;;;1.85;;
51943;SDS011;37969;53.132;6.370;2023-09-30T11:28:15;9.82;;;1.88;;
51943;SDS011;37969;53.132;6.370;2023-09-30T11:30:53;8.48;;;1.98;;
51943;SDS011;37969;53.132;6.370;2023-09-30T11:33:19;9.90;;;2.50;;
51943;SDS011;37969;53.132;6.370;2023-09-30T11:35:59;9.82;;;2.10;;
51943;SDS011;37969;53.132;6.370;2023-09-30T11:38:27;9.65;;;2.30;;
51943;SDS011;37969;53.132;6.370;2023-09-30T11:41:01;8.90;;;2.17;;
51943;SDS011;37969;53.132;6.370;2023-09-30T11:43:29;12.45;;;2.13;;
51943;SDS011;37969;53.132;6.370;2023-09-30T11:46:03;11.18;;;1.83;;
51943;SDS011;37969;53.132;6.370;2023-09-30T11:48:30;4.45;;;1.73;;
51943;SDS011;37969;53.132;6.370;2023-09-30T11:50:58;8.40;;;2.40;;
51943;SDS011;37969;53.132;6.370;2023-09-30T11:53:28;6.22;;;2.28;;
51943;SDS011;37969;53.132;6.370;2023-09-30T11:55:56;7.13;;;1.70;;
51943;SDS011;37969;53.132;6.370;2023-09-30T11:58:24;8.77;;;1.98;;
51943;SDS011;37969;53.132;6.370;2023-09-30T12:00:52;8.55;;;1.60;;
51943;SDS011;37969;53.132;6.370;2023-09-30T12:03:19;9.00;;;1.88;;
51943;SDS011;37969;53.132;6.370;2023-09-30T12:05:45;9.50;;;2.10;;
51943;SDS011;37969;53.132;6.370;2023-09-30T12:08:12;7.20;;;2.22;;
51943;SDS011;37969;53.132;6.370;2023-09-30T12:10:39;11.30;;;2.72;;
51943;SDS011;37969;53.132;6.370;2023-09-30T12:13:05;7.53;;;2.05;;
51943;SDS011;37969;53.132;6.370;2023-09-30T12:15:31;9.60;;;1.90;;
51943;SDS011;37969;53.132;6.370;2023-09-30T12:17:58;7.90;;;1.77;;
51943;SDS011;37969;53.132;6.370;2023-09-30T12:20:24;12.48;;;2.33;;
51943;SDS011;37969;53.132;6.370;2023-09-30T12:22:50;8.55;;;2.00;;
51943;SDS011;37969;53.132;6.370;2023-09-30T12:25:18;10.65;;;1.80;;
51943;SDS011;37969;53.132;6.370;2023-09-30T12:27:47;15.43;;;2.47;;
51943;SDS011;37969;53.132;6.370;2023-09-30T12:30:13;10.80;;;1.92;;
51943;SDS011;37969;53.132;6.370;2023-09-30T12:32:39;8.30;;;1.95;;
51943;SDS011;37969;53.132;6.370;2023-09-30T12:35:06;8.20;;;1.63;;
51943;SDS011;37969;53.132;6.370;2023-09-30T12:37:32;10.43;;;1.90;;
51943;SDS011;37969;53.132;6.370;2023-09-30T12:39:58;10.43;;;2.42;;
51943;SDS011;37969;53.132;6.370;2023-09-30T12:42:25;7.35;;;1.77;;
51943;SDS011;37969;53.132;6.370;2023-09-30T12:44:51;8.80;;;1.90;;
51943;SDS011;37969;53.132;6.370;2023-09-30T12:47:17;5.90;;;1.90;;
51943;SDS011;37969;53.132;6.370;2023-09-30T12:49:43;5.72;;;2.00;;
51943;SDS011;37969;53.132;6.370;2023-09-30T12:52:10;6.50;;;2.15;;
51943;SDS011;37969;53.132;6.370;2023-09-30T12:54:36;9.85;;;1.90;;
51943;SDS011;37969;53.132;6.370;2023-09-30T12:57:03;6.63;;;1.48;;
51943;SDS011;37969;53.132;6.370;2023-09-30T12:59:32;8.45;;;2.03;;
51943;SDS011;37969;53.132;6.370;2023-09-30T13:01:59;12.13;;;1.80;;
51943;SDS011;37969;53.132;6.370;2023-09-30T13:04:25;10.63;;;2.38;;
51943;SDS011;37969;53.132;6.370;2023-09-30T13:06:52;9.30;;;2.20;;
51943;SDS011;37969;53.132;6.370;2023-09-30T13:09:18;5.45;;;1.38;;
51943;SDS011;37969;53.132;6.370;2023-09-30T13:11:45;5.85;;;1.90;;
51943;SDS011;37969;53.132;6.370;2023-09-30T13:14:11;7.75;;;2.20;;
51943;SDS011;37969;53.132;6.370;2023-09-30T13:16:38;5.40;;;1.60;;
51943;SDS011;37969;53.132;6.370;2023-09-30T13:19:05;7.10;;;1.80;;
51943;SDS011;37969;53.132;6.370;2023-09-30T13:21:31;6.45;;;1.80;;
51943;SDS011;37969;53.132;6.370;2023-09-30T13:23:57;8.50;;;2.08;;
51943;SDS011;37969;53.132;6.370;2023-09-30T13:26:24;7.25;;;1.77;;
51943;SDS011;37969;53.132;6.370;2023-09-30T13:28:50;7.18;;;1.50;;
51943;SDS011;37969;53.132;6.370;2023-09-30T13:31:17;6.78;;;1.90;;
51943;SDS011;37969;53.132;6.370;2023-09-30T13:33:43;8.68;;;1.90;;
51943;SDS011;37969;53.132;6.370;2023-09-30T13:36:09;7.10;;;1.98;;
51943;SDS011;37969;53.132;6.370;2023-09-30T13:38:36;7.10;;;2.35;;
51943;SDS011;37969;53.132;6.370;2023-09-30T13:41:02;6.35;;;1.65;;
51943;SDS011;37969;53.132;6.370;2023-09-30T13:43:28;5.03;;;1.85;;
51943;SDS011;37969;53.132;6.370;2023-09-30T13:45:55;4.78;;;1.50;;
51943;SDS011;37969;53.132;6.370;2023-09-30T13:48:21;10.63;;;1.85;;
51943;SDS011;37969;53.132;6.370;2023-09-30T13:50:48;7.68;;;2.00;;
51943;SDS011;37969;53.132;6.370;2023-09-30T13:53:14;5.47;;;1.50;;
51943;SDS011;37969;53.132;6.370;2023-09-30T13:55:41;6.15;;;1.50;;
51943;SDS011;37969;53.132;6.370;2023-09-30T13:58:07;8.18;;;1.80;;
51943;SDS011;37969;53.132;6.370;2023-09-30T14:00:34;5.22;;;1.95;;
51943;SDS011;37969;53.132;6.370;2023-09-30T14:03:00;6.85;;;1.55;;
51943;SDS011;37969;53.132;6.370;2023-09-30T14:05:28;6.93;;;1.67;;
51943;SDS011;37969;53.132;6.370;2023-09-30T14:07:54;6.78;;;2.00;;
51943;SDS011;37969;53.132;6.370;2023-09-30T14:10:20;4.80;;;1.77;;
51943;SDS011;37969;53.132;6.370;2023-09-30T14:12:46;6.03;;;1.85;;
51943;SDS011;37969;53.132;6.370;2023-09-30T14:15:13;5.70;;;2.13;;
51943;SDS011;37969;53.132;6.370;2023-09-30T14:17:40;11.60;;;1.95;;
51943;SDS011;37969;53.132;6.370;2023-09-30T14:20:07;7.57;;;1.90;;
51943;SDS011;37969;53.132;6.370;2023-09-30T14:22:34;7.70;;;1.80;;
51943;SDS011;37969;53.132;6.370;2023-09-30T14:25:01;4.47;;;1.55;;
51943;SDS011;37969;53.132;6.370;2023-09-30T14:27:27;6.45;;;1.58;;